Time;durP1;ratioP1;P1;durP2;ratioP2;P2;SDS_P1;SDS_P2;PMS_P1;PMS_P2;Temp;Humidity;BMP_temperature;BMP_pressure;BME280_temperature;BME280_humidity;BME280_pressure;Samples;Min_cycle;Max_cycle;Signal;HPM_P1;HPM_P2
2023/10/08 00:02:25;;;;;;;1.35;0.73;;;17.70;99.90;;;;;;5086428;28;20051;-87
2023/10/08 00:04:54;;;;;;;1.58;0.88;;;17.60;99.90;;;;;;5086038;28;20043;-86
2023/10/08 00:07:21;;;;;;;1.23;0.68;;;17.60;99.90;;;;;;5069660;28;20051;-87
2023/10/08 00:09:50;;;;;;;1.23;0.70;;;17.60;99.90;;;;;;5067642;28;20512;-86
2023/10/08 00:12:19;;;;;;;1.38;0.60;;;17.60;99.90;;;;;;5072789;28;20055;-87
2023/10/08 00:14:49;;;;;;;1.10;0.70;;;17.60;99.90;;;;;;5089773;28;20421;-87
2023/10/08 00:17:19;;;;;;;1.00;0.77;;;17.60;99.90;;;;;;5090155;28;20237;-86
2023/10/08 00:19:52;;;;;;;1.65;1.08;;;17.50;99.90;;;;;;5090263;28;20048;-87
2023/10/08 00:22:20;;;;;;;1.20;0.77;;;17.50;99.90;;;;;;5058144;28;20051;-86
2023/10/08 00:24:49;;;;;;;1.20;0.68;;;17.40;99.90;;;;;;5095139;28;20047;-86
2023/10/08 00:27:17;;;;;;;0.98;0.57;;;17.40;99.90;;;;;;5093552;28;20044;-87
2023/10/08 00:29:45;;;;;;;1.23;0.63;;;17.40;99.90;;;;;;5097500;28;20055;-87
2023/10/08 00:32:12;;;;;;;0.95;0.57;;;17.40;99.90;;;;;;5093094;28;20091;-87
2023/10/08 00:34:43;;;;;;;1.05;0.77;;;17.30;99.90;;;;;;5101825;27;20096;-87
2023/10/08 00:37:10;;;;;;;1.27;0.68;;;17.30;99.90;;;;;;5090435;28;20044;-88
2023/10/08 00:39:39;;;;;;;2.00;0.90;;;17.30;99.90;;;;;;5068274;28;20058;-87
2023/10/08 00:42:07;;;;;;;1.25;0.75;;;17.20;99.90;;;;;;5069730;28;20052;-88
2023/10/08 00:44:51;;;;;;;1.42;0.80;;;17.20;99.90;;;;;;5102577;28;20055;-87
2023/10/08 00:47:21;;;;;;;0.88;0.63;;;17.10;99.90;;;;;;5091823;28;20046;-87
2023/10/08 00:49:54;;;;;;;0.52;0.50;;;17.10;99.90;;;;;;5086234;28;20044;-87
2023/10/08 00:52:30;;;;;;;1.15;0.60;;;17.00;99.90;;;;;;5074813;28;20067;-85
2023/10/08 00:57:30;;;;;;;0.85;0.60;;;16.90;99.90;;;;;;5102853;28;20047;-87
2023/10/08 00:59:58;;;;;;;0.85;0.60;;;16.90;99.90;;;;;;5069720;28;20040;-86
2023/10/08 01:02:28;;;;;;;1.23;0.70;;;16.80;99.90;;;;;;5089101;28;20460;-86
2023/10/08 01:04:56;;;;;;;1.13;0.70;;;16.80;99.90;;;;;;5071664;28;20043;-87
2023/10/08 01:07:23;;;;;;;1.20;0.70;;;16.70;99.90;;;;;;5088300;28;20047;-86
2023/10/08 01:09:51;;;;;;;1.10;0.73;;;16.70;99.90;;;;;;5086410;28;20328;-86
2023/10/08 01:14:53;;;;;;;1.42;0.80;;;16.70;99.90;;;;;;5088258;28;20269;-86
2023/10/08 01:17:31;;;;;;;1.20;0.63;;;16.70;99.90;;;;;;5106342;28;20058;-86
2023/10/08 01:20:21;;;;;;;0.80;0.50;;;16.70;99.90;;;;;;5088778;28;20128;-85
2023/10/08 01:22:48;;;;;;;0.98;0.80;;;16.70;99.90;;;;;;5076724;28;20108;-86
2023/10/08 01:25:23;;;;;;;1.27;0.80;;;16.60;99.90;;;;;;5082445;28;20048;-86
2023/10/08 01:28:09;;;;;;;0.77;0.50;;;16.60;99.90;;;;;;5103635;27;20059;-88
2023/10/08 01:30:41;;;;;;;0.93;0.60;;;16.50;99.90;;;;;;5082054;28;20039;-87
2023/10/08 01:33:20;;;;;;;0.60;0.60;;;16.40;99.90;;;;;;5077592;28;20054;-88
2023/10/08 01:35:49;;;;;;;0.93;0.60;;;16.40;99.90;;;;;;5110445;28;20043;-88
2023/10/08 01:38:22;;;;;;;0.80;0.50;;;16.40;99.90;;;;;;5091343;28;20051;-88
2023/10/08 01:40:51;;;;;;;;;;;16.30;99.90;;;;;;5108649;28;20611;-88
2023/10/08 01:43:18;;;;;;;1.85;1.02;;;16.30;99.90;;;;;;5110590;28;19933;-85
2023/10/08 01:45:49;;;;;;;1.35;0.85;;;16.30;1.00;;;;;;5070247;28;20051;-87
2023/10/08 01:48:26;;;;;;;1.23;0.70;;;16.30;1.00;;;;;;5072528;28;20060;-87
2023/10/08 01:51:11;;;;;;;1.00;0.60;;;16.40;1.00;;;;;;5092027;28;20101;-88
2023/10/08 01:53:42;;;;;;;1.50;1.02;;;16.40;1.00;;;;;;5084681;28;20131;-88
2023/10/08 01:56:10;;;;;;;1.45;0.80;;;16.40;1.00;;;;;;5095670;28;20047;-88
2023/10/08 01:58:38;;;;;;;0.98;0.60;;;16.40;1.00;;;;;;5090484;28;20036;-87
2023/10/08 02:01:11;;;;;;;1.70;0.80;;;16.40;1.00;;;;;;5106059;28;20102;-87
2023/10/08 02:03:41;;;;;;;1.05;0.65;;;16.40;1.00;;;;;;5105062;28;20048;-88
2023/10/08 02:06:12;;;;;;;1.10;0.70;;;16.50;1.00;;;;;;5075659;28;20396;-88
2023/10/08 02:08:40;;;;;;;1.45;0.60;;;16.50;1.00;;;;;;5109751;28;20051;-89
2023/10/08 02:11:08;;;;;;;1.08;0.63;;;16.60;1.00;;;;;;5074767;28;20063;-88
2023/10/08 02:13:36;;;;;;;0.77;0.65;;;16.60;1.00;;;;;;5068567;28;20090;-88
2023/10/08 02:16:03;;;;;;;1.25;0.77;;;16.60;1.00;;;;;;5089949;28;20055;-88
2023/10/08 02:18:32;;;;;;;2.92;0.50;;;16.60;1.00;;;;;;5089897;28;20052;-88
2023/10/08 02:21:02;;;;;;;0.63;0.52;;;16.60;1.00;;;;;;5108969;28;20469;-87
2023/10/08 02:23:31;;;;;;;1.05;0.52;;;16.60;1.00;;;;;;5074655;28;20101;-88
2023/10/08 02:25:58;;;;;;;1.42;0.70;;;16.60;1.00;;;;;;5074434;28;20108;-88
2023/10/08 02:28:26;;;;;;;0.75;0.50;;;16.60;1.00;;;;;;5109202;28;20099;-88
2023/10/08 02:30:53;;;;;;;0.80;0.50;;;16.60;1.00;;;;;;5109634;28;20055;-88
2023/10/08 02:33:21;;;;;;;1.20;0.70;;;16.60;1.00;;;;;;5107552;28;20070;-89
2023/10/08 02:35:49;;;;;;;0.90;0.63;;;16.60;1.00;;;;;;5107309;28;20151;-88
2023/10/08 02:38:24;;;;;;;1.05;0.63;;;16.60;1.00;;;;;;5090592;28;20055;-88
2023/10/08 02:40:56;;;;;;;0.75;0.60;;;16.50;1.00;;;;;;5108568;28;20075;-88
2023/10/08 02:43:26;;;;;;;1.02;0.52;;;16.50;1.00;;;;;;5107504;28;20058;-88
2023/10/08 02:45:55;;;;;;;0.70;0.50;;;16.50;1.00;;;;;;5090803;28;20052;-87
2023/10/08 02:48:29;;;;;;;0.65;0.47;;;16.50;1.00;;;;;;5109220;28;20040;-87
2023/10/08 02:51:06;;;;;;;0.75;0.60;;;16.50;1.00;;;;;;5108846;28;20061;-88
2023/10/08 02:53:33;;;;;;;0.80;0.57;;;16.50;1.00;;;;;;5108810;28;20069;-87
2023/10/08 02:56:12;;;;;;;0.90;0.55;;;16.60;1.00;;;;;;5107125;28;20065;-87
2023/10/08 02:58:47;;;;;;;0.98;0.77;;;16.60;1.00;;;;;;5100824;28;20266;-87
2023/10/08 03:01:16;;;;;;;1.27;0.73;;;16.60;1.00;;;;;;5107305;28;20806;-88
2023/10/08 03:03:43;;;;;;;0.50;0.50;;;16.60;1.00;;;;;;5091059;28;20381;-89
2023/10/08 03:06:14;;;;;;;1.33;0.70;;;16.50;1.00;;;;;;5101292;28;20044;-88
2023/10/08 03:08:41;;;;;;;0.93;0.52;;;16.50;1.00;;;;;;5089117;28;20048;-88
2023/10/08 03:11:16;;;;;;;1.45;0.80;;;16.40;1.00;;;;;;5072709;28;20052;-88
2023/10/08 03:13:51;;;;;;;1.08;0.77;;;16.30;1.00;;;;;;5058169;28;20040;-88
2023/10/08 03:16:27;;;;;;;0.95;0.50;;;16.30;1.00;;;;;;5089013;28;20052;-88
2023/10/08 03:19:05;;;;;;;0.70;0.40;;;16.20;1.00;;;;;;5089189;28;20109;-88
2023/10/08 03:27:20;;;;;;;0.80;0.63;;;15.90;1.00;;;;;;5110683;28;20376;-88
2023/10/08 03:29:48;;;;;;;0.80;0.50;;;15.80;1.00;;;;;;5094071;28;20101;-88
2023/10/08 03:32:18;;;;;;;0.60;0.45;;;15.70;49.10;;;;;;5109018;28;20048;-88
2023/10/08 03:34:49;;;;;;;0.93;0.60;;;15.60;77.60;;;;;;5093468;28;20052;-89
2023/10/08 03:37:21;;;;;;;1.20;0.65;;;15.50;99.90;;;;;;5092530;28;20117;-88
2023/10/08 03:39:51;;;;;;;0.98;0.73;;;15.40;99.90;;;;;;5091833;28;20476;-86
2023/10/08 03:42:25;;;;;;;0.95;0.60;;;15.40;99.90;;;;;;5077395;28;20066;-88
2023/10/08 03:44:55;;;;;;;1.50;0.73;;;15.30;99.90;;;;;;5093404;28;20062;-87
2023/10/08 03:47:26;;;;;;;0.50;0.40;;;15.20;99.90;;;;;;5080574;28;20488;-88
2023/10/08 03:49:55;;;;;;;0.60;0.40;;;15.10;99.90;;;;;;5113625;28;20052;-88
2023/10/08 03:52:25;;;;;;;1.42;0.75;;;15.00;99.90;;;;;;5101403;28;20079;-88
2023/10/08 03:55:27;;;;;;;0.82;0.70;;;15.00;1.00;;;;;;5096828;28;20059;-88
2023/10/08 03:57:56;;;;;;;0.35;0.35;;;15.00;1.00;;;;;;5095646;28;20108;-88
2023/10/08 04:00:31;;;;;;;0.98;0.70;;;14.90;1.00;;;;;;5097142;28;20043;-88
2023/10/08 04:03:07;;;;;;;1.15;0.60;;;14.90;1.00;;;;;;5107652;28;20051;-87
2023/10/08 04:08:42;;;;;;;0.98;0.60;;;14.80;1.00;;;;;;5084818;28;20081;-87
2023/10/08 04:13:59;;;;;;;1.02;0.70;;;14.70;99.90;;;;;;5109275;28;20035;-86
2023/10/08 04:16:27;;;;;;;1.05;0.60;;;14.70;99.90;;;;;;5094064;28;20052;-87
2023/10/08 04:18:55;;;;;;;0.85;0.68;;;14.70;99.90;;;;;;5095258;28;20066;-87
2023/10/08 04:21:29;;;;;;;0.60;0.55;;;14.60;99.90;;;;;;5075444;28;20048;-88
2023/10/08 04:23:57;;;;;;;0.98;0.63;;;14.60;99.90;;;;;;5105952;28;20048;-87
2023/10/08 04:26:27;;;;;;;0.70;0.50;;;14.60;99.90;;;;;;5079211;28;20158;-87
2023/10/08 04:29:02;;;;;;;1.25;0.73;;;14.60;1.00;;;;;;5092057;28;20054;-88
2023/10/08 04:31:43;;;;;;;1.20;0.80;;;14.60;1.00;;;;;;5076467;28;20055;-89
2023/10/08 04:34:24;;;;;;;0.68;0.45;;;14.50;99.90;;;;;;5097095;28;20543;-89
2023/10/08 04:37:00;;;;;;;0.88;0.68;;;14.50;99.90;;;;;;5075481;28;20101;-88
2023/10/08 04:39:34;;;;;;;0.80;0.57;;;14.50;1.00;;;;;;5091569;28;20051;-89
2023/10/08 04:42:09;;;;;;;0.70;0.50;;;14.40;1.00;;;;;;5108354;27;20051;-88
2023/10/08 04:44:39;;;;;;;1.23;0.50;;;14.40;1.00;;;;;;5104601;28;20052;-88
2023/10/08 04:47:09;;;;;;;0.50;0.45;;;14.40;1.00;;;;;;5083919;28;20515;-86
2023/10/08 04:49:38;;;;;;;1.05;0.82;;;14.30;73.00;;;;;;5087975;28;20058;-88
2023/10/08 04:52:16;;;;;;;1.13;0.68;;;14.40;99.90;;;;;;5075077;28;20562;-88
2023/10/08 04:54:54;;;;;;;0.93;0.63;;;14.30;99.90;;;;;;5078115;28;20052;-89
2023/10/08 04:57:25;;;;;;;0.95;0.60;;;14.30;99.90;;;;;;5084649;28;20063;-81
2023/10/08 04:59:57;;;;;;;0.70;0.50;;;14.30;99.90;;;;;;5104275;28;20126;-81
2023/10/08 05:02:49;;;;;;;1.17;0.50;;;14.30;99.90;;;;;;5085082;28;20050;-82
2023/10/08 05:20:59;;;;;;;0.85;0.60;;;14.10;99.90;;;;;;5091957;28;20051;-85
2023/10/08 05:28:46;;;;;;;1.05;0.55;;;14.10;99.90;;;;;;5088599;28;20059;-84
2023/10/08 05:39:30;;;;;;;0.50;0.40;;;14.10;99.90;;;;;;5012647;28;20052;-85
2023/10/08 05:42:45;;;;;;;0.60;0.40;;;14.10;99.90;;;;;;5063119;28;20138;-84
2023/10/08 05:50:38;;;;;;;0.32;0.30;;;14.10;99.90;;;;;;5099839;28;20515;-84
2023/10/08 05:55:47;;;;;;;1.30;0.52;;;14.00;99.90;;;;;;5086099;28;20541;-84
2023/10/08 05:58:24;;;;;;;0.55;0.35;;;14.00;1.00;;;;;;5074874;28;20044;-85
2023/10/08 06:01:25;;;;;;;1.02;0.70;;;13.90;1.00;;;;;;5062220;28;20052;-84
2023/10/08 06:04:20;;;;;;;0.68;0.40;;;13.90;1.00;;;;;;5075119;28;20156;-84
2023/10/08 06:07:11;;;;;;;0.35;0.25;;;13.90;1.00;;;;;;5078551;28;20478;-84
2023/10/08 06:09:37;;;;;;;0.77;0.50;;;13.90;1.00;;;;;;5091742;28;20618;-84
2023/10/08 06:12:12;;;;;;;0.63;0.50;;;13.90;1.00;;;;;;5064590;28;20201;-83
2023/10/08 06:17:58;;;;;;;0.43;0.30;;;13.80;99.90;;;;;;5026782;28;20080;-83
2023/10/08 06:20:26;;;;;;;0.95;0.50;;;13.80;99.90;;;;;;5095207;28;20085;-83
2023/10/08 06:22:59;;;;;;;1.10;0.60;;;13.80;99.90;;;;;;5094362;28;20433;-83
2023/10/08 06:25:28;;;;;;;0.82;0.45;;;13.70;1.00;;;;;;5084935;28;20047;-83
2023/10/08 06:27:57;;;;;;;0.70;0.47;;;13.70;1.00;;;;;;5078078;28;20481;-86
2023/10/08 06:30:29;;;;;;;0.80;0.50;;;13.70;1.00;;;;;;5097652;28;20044;-84
2023/10/08 06:32:56;;;;;;;1.27;0.70;;;13.80;1.00;;;;;;5092276;28;20043;-84
2023/10/08 06:35:25;;;;;;;0.60;0.50;;;13.80;1.00;;;;;;5076044;28;20059;-83
2023/10/08 06:37:54;;;;;;;0.63;0.47;;;13.80;1.00;;;;;;5101548;28;20059;-84
2023/10/08 06:43:24;;;;;;;0.73;0.40;;;13.90;1.00;;;;;;5089578;28;20493;-83
2023/10/08 06:45:57;;;;;;;0.68;0.40;;;13.90;1.00;;;;;;5081273;28;20107;-84
2023/10/08 06:48:25;;;;;;;0.35;0.35;;;13.90;22.80;;;;;;5079471;28;20048;-84
2023/10/08 06:50:56;;;;;;;0.80;0.60;;;13.90;99.90;;;;;;5071461;28;20377;-84
2023/10/08 06:53:24;;;;;;;0.60;0.30;;;14.00;99.90;;;;;;5068278;28;20331;-86
2023/10/08 06:55:56;;;;;;;0.43;0.35;;;14.00;99.90;;;;;;5097238;28;20060;-86
2023/10/08 06:58:24;;;;;;;0.50;0.40;;;14.10;99.90;;;;;;5085138;28;20508;-86
2023/10/08 07:00:51;;;;;;;0.50;0.40;;;14.10;99.90;;;;;;5067038;28;20059;-84
2023/10/08 07:03:18;;;;;;;0.43;0.30;;;14.20;52.90;;;;;;5101491;28;20134;-86
2023/10/08 07:05:59;;;;;;;0.63;0.50;;;14.20;39.30;;;;;;5102721;28;20464;-84
2023/10/08 07:08:31;;;;;;;0.70;0.60;;;14.30;1.00;;;;;;5085698;28;20058;-84
2023/10/08 07:11:11;;;;;;;0.55;0.40;;;14.40;1.00;;;;;;5105729;28;20460;-84
2023/10/08 07:13:40;;;;;;;0.98;0.47;;;14.40;1.00;;;;;;5088521;28;20043;-85
2023/10/08 07:16:11;;;;;;;0.90;0.60;;;14.50;1.00;;;;;;5087566;28;20051;-85
2023/10/08 07:18:39;;;;;;;0.98;0.60;;;14.60;1.00;;;;;;5084692;28;20039;-85
2023/10/08 07:21:12;;;;;;;0.75;0.45;;;14.70;1.00;;;;;;5087664;28;20044;-84
2023/10/08 07:23:59;;;;;;;0.50;0.30;;;14.70;99.90;;;;;;5103308;28;20662;-84
2023/10/08 07:26:35;;;;;;;0.65;0.30;;;14.80;99.90;;;;;;5089786;28;20482;-86
2023/10/08 07:29:08;;;;;;;0.55;0.32;;;14.90;99.90;;;;;;5104205;28;20172;-84
2023/10/08 07:31:36;;;;;;;0.98;0.50;;;15.00;99.90;;;;;;5085783;28;20040;-85
2023/10/08 07:34:18;;;;;;;0.65;0.40;;;15.10;99.90;;;;;;5104297;28;20082;-83
2023/10/08 07:36:47;;;;;;;0.23;0.20;;;15.20;99.90;;;;;;5101446;28;20062;-84
2023/10/08 07:41:56;;;;;;;0.20;0.20;;;15.50;1.00;;;;;;5104174;28;20054;-85
2023/10/08 07:44:24;;;;;;;0.60;0.45;;;15.50;1.00;;;;;;5087067;28;20039;-85
2023/10/08 07:46:52;;;;;;;1.65;0.85;;;15.70;99.90;;;;;;5088082;28;20144;-85
2023/10/08 07:49:18;;;;;;;0.90;0.63;;;15.80;99.90;;;;;;5063824;28;20052;-85
2023/10/08 07:51:51;;;;;;;1.00;0.40;;;15.90;99.90;;;;;;5088237;28;20048;-85
2023/10/08 07:54:24;;;;;;;0.75;0.40;;;16.00;50.10;;;;;;5084045;28;20403;-84
2023/10/08 07:57:09;;;;;;;0.38;0.30;;;16.20;1.00;;;;;;5083992;28;20420;-85
2023/10/08 07:59:38;;;;;;;1.02;0.50;;;16.30;99.90;;;;;;5089357;28;20050;-86
2023/10/08 08:02:12;;;;;;;0.57;0.43;;;16.50;99.90;;;;;;5082983;28;20112;-85
2023/10/08 08:04:39;;;;;;;0.45;0.35;;;16.60;1.00;;;;;;5078468;28;20051;-85
2023/10/08 08:07:07;;;;;;;0.68;0.40;;;16.70;99.90;;;;;;5084387;28;20048;-85
2023/10/08 08:09:50;;;;;;;0.57;0.47;;;16.80;99.90;;;;;;5065903;28;20070;-83
2023/10/08 08:12:21;;;;;;;0.40;0.40;;;16.90;99.90;;;;;;5080690;28;20043;-83
2023/10/08 08:14:49;;;;;;;0.73;0.40;;;17.10;99.90;;;;;;5079076;28;20522;-83
2023/10/08 08:17:17;;;;;;;0.43;0.30;;;17.20;99.90;;;;;;5083739;28;20075;-84
2023/10/08 08:19:46;;;;;;;0.93;0.57;;;17.30;99.90;;;;;;5104554;28;20381;-83
2023/10/08 08:22:32;;;;;;;0.50;0.35;;;17.40;99.90;;;;;;5101087;28;20400;-84
2023/10/08 08:25:26;;;;;;;1.02;0.50;;;17.50;99.90;;;;;;5088421;28;20054;-84
2023/10/08 08:27:53;;;;;;;0.45;0.30;;;17.60;99.90;;;;;;5093072;28;20052;-84
2023/10/08 08:30:20;;;;;;;0.70;0.50;;;17.70;99.90;;;;;;5069188;28;20043;-84
2023/10/08 08:32:47;;;;;;;0.63;0.40;;;17.70;99.90;;;;;;5100379;28;20069;-84
2023/10/08 08:35:19;;;;;;;0.45;0.30;;;17.80;99.90;;;;;;5086319;28;20170;-79
2023/10/08 08:37:46;;;;;;;0.55;0.32;;;17.90;99.90;;;;;;5099330;28;20079;-80
2023/10/08 08:40:19;;;;;;;0.50;0.35;;;18.10;99.90;;;;;;5101225;28;20143;-81
2023/10/08 08:42:48;;;;;;;0.40;0.40;;;18.20;99.90;;;;;;5107846;28;20047;-81
2023/10/08 08:45:26;;;;;;;0.40;0.40;;;18.30;99.90;;;;;;5102777;28;20044;-78
2023/10/08 08:47:53;;;;;;;0.73;0.38;;;18.50;99.90;;;;;;5088105;28;20119;-73
2023/10/08 08:50:21;;;;;;;0.60;0.40;;;18.60;99.90;;;;;;5096955;28;20476;-73
2023/10/08 08:52:48;;;;;;;0.40;0.30;;;18.70;99.90;;;;;;5101050;28;20228;-73
2023/10/08 08:55:16;;;;;;;0.32;0.32;;;18.80;99.90;;;;;;5095796;28;20051;-73
2023/10/08 08:57:47;;;;;;;0.45;0.40;;;18.90;99.90;;;;;;5098858;28;20429;-73
2023/10/08 09:00:18;;;;;;;0.80;0.40;;;19.10;99.90;;;;;;5102107;28;20040;-74
2023/10/08 09:02:47;;;;;;;0.65;0.38;;;19.20;99.90;;;;;;5093840;28;20278;-74
2023/10/08 09:05:25;;;;;;;0.50;0.47;;;19.30;99.90;;;;;;5096561;28;20309;-74
2023/10/08 09:07:58;;;;;;;0.73;0.45;;;19.40;99.90;;;;;;5076245;28;20255;-74
2023/10/08 09:10:29;;;;;;;0.63;0.52;;;19.40;99.90;;;;;;5088876;28;20059;-74
2023/10/08 09:12:59;;;;;;;0.80;0.50;;;19.60;99.90;;;;;;5105586;28;20044;-73
2023/10/08 09:15:26;;;;;;;1.05;0.70;;;19.70;90.50;;;;;;5105844;28;20040;-73
2023/10/08 09:17:57;;;;;;;0.40;0.30;;;19.80;88.70;;;;;;5086232;28;20085;-74
2023/10/08 09:20:24;;;;;;;0.80;0.40;;;19.90;81.60;;;;;;5071921;28;20504;-74
2023/10/08 09:23:07;;;;;;;0.60;0.60;;;20.00;65.00;;;;;;5105697;28;20058;-74
2023/10/08 09:25:34;;;;;;;0.55;0.30;;;20.00;57.20;;;;;;5089198;28;20048;-74
2023/10/08 09:28:01;;;;;;;0.30;0.30;;;20.10;56.00;;;;;;5106934;28;20039;-74
2023/10/08 09:30:29;;;;;;;0.45;0.30;;;20.20;55.10;;;;;;5072150;28;20160;-74
2023/10/08 09:32:56;;;;;;;0.50;0.30;;;20.20;52.20;;;;;;5102019;28;20040;-74
2023/10/08 09:35:24;;;;;;;0.82;0.50;;;20.20;53.90;;;;;;5095653;28;20078;-74
2023/10/08 09:37:51;;;;;;;0.55;0.30;;;20.30;51.90;;;;;;5102596;28;20085;-74
2023/10/08 09:40:21;;;;;;;0.73;0.40;;;20.40;53.40;;;;;;5088305;28;20300;-74
2023/10/08 09:42:48;;;;;;;0.77;0.40;;;20.50;51.30;;;;;;5088799;28;20549;-74
2023/10/08 09:45:14;;;;;;;0.73;0.50;;;20.60;52.50;;;;;;5089071;28;20405;-74
2023/10/08 09:47:45;;;;;;;0.60;0.40;;;20.60;52.40;;;;;;5099260;28;20386;-74
2023/10/08 09:50:12;;;;;;;0.82;0.40;;;20.70;49.40;;;;;;5090069;28;20043;-74
2023/10/08 09:53:04;;;;;;;0.57;0.40;;;20.80;50.20;;;;;;5079333;28;20052;-74
2023/10/08 09:55:31;;;;;;;0.68;0.45;;;20.90;46.30;;;;;;5089197;28;20485;-74
2023/10/08 09:57:58;;;;;;;0.55;0.32;;;21.00;45.20;;;;;;5081170;28;20043;-74
2023/10/08 10:00:31;;;;;;;0.45;0.30;;;21.10;44.20;;;;;;5088265;28;20126;-74
2023/10/08 10:03:02;;;;;;;0.73;0.30;;;21.10;41.30;;;;;;5087621;28;20115;-74
2023/10/08 10:05:30;;;;;;;0.55;0.40;;;21.20;37.90;;;;;;5101528;28;20078;-74
2023/10/08 10:07:57;;;;;;;0.43;0.30;;;21.30;37.80;;;;;;5106098;28;20140;-74
2023/10/08 10:10:28;;;;;;;0.63;0.47;;;21.40;37.30;;;;;;5095326;28;20130;-73
2023/10/08 10:13:07;;;;;;;0.28;0.28;;;21.40;35.60;;;;;;5100003;28;20128;-73
2023/10/08 10:15:39;;;;;;;0.55;0.40;;;21.50;36.20;;;;;;5099533;28;20075;-73
2023/10/08 10:18:16;;;;;;;0.80;0.50;;;21.60;34.40;;;;;;5087346;28;20047;-73
2023/10/08 10:20:47;;;;;;;0.50;0.30;;;21.80;33.70;;;;;;5094653;28;20056;-74
2023/10/08 10:23:37;;;;;;;0.82;0.57;;;21.80;30.70;;;;;;5074614;28;20078;-74
2023/10/08 10:26:04;;;;;;;0.73;0.50;;;21.80;28.50;;;;;;5105597;28;20246;-74
2023/10/08 10:28:33;;;;;;;0.38;0.38;;;21.80;28.60;;;;;;5102708;28;20243;-74
2023/10/08 10:31:00;;;;;;;0.88;0.50;;;21.90;28.40;;;;;;5103566;28;20051;-73
2023/10/08 10:33:33;;;;;;;1.05;0.45;;;22.00;27.70;;;;;;5104498;28;20058;-74
2023/10/08 10:36:01;;;;;;;0.68;0.40;;;22.00;30.00;;;;;;5088459;28;20043;-74
2023/10/08 10:38:29;;;;;;;0.70;0.60;;;22.10;27.50;;;;;;5067220;28;20489;-74
2023/10/08 10:40:59;;;;;;;1.65;0.60;;;22.20;26.30;;;;;;5087374;28;20269;-74
2023/10/08 10:43:33;;;;;;;0.98;0.65;;;22.20;24.70;;;;;;5100785;28;20451;-74
2023/10/08 10:46:24;;;;;;;1.13;0.80;;;22.30;23.80;;;;;;5089311;28;20059;-73
2023/10/08 10:49:04;;;;;;;0.65;0.50;;;22.30;22.80;;;;;;5104671;28;20044;-74
2023/10/08 10:51:33;;;;;;;0.75;0.55;;;22.40;21.30;;;;;;5098122;28;20112;-74
2023/10/08 10:54:07;;;;;;;0.90;0.60;;;22.40;19.90;;;;;;5104797;28;20051;-74
2023/10/08 10:56:40;;;;;;;0.80;0.52;;;22.40;18.70;;;;;;5103930;28;20113;-73
2023/10/08 10:59:18;;;;;;;1.10;0.75;;;22.60;19.00;;;;;;5098658;28;20230;-74
2023/10/08 11:01:52;;;;;;;1.48;0.73;;;22.60;18.10;;;;;;5095148;28;20056;-74
2023/10/08 11:04:28;;;;;;;0.90;0.68;;;22.70;16.10;;;;;;5088691;28;20424;-73
2023/10/08 11:07:00;;;;;;;1.10;0.90;;;22.80;17.60;;;;;;5087450;28;20531;-77
2023/10/08 11:09:38;;;;;;;0.90;0.70;;;22.90;16.70;;;;;;5079250;28;20056;-73
2023/10/08 11:12:12;;;;;;;1.60;0.88;;;23.00;15.30;;;;;;5081428;28;20059;-73
2023/10/08 11:14:42;;;;;;;1.48;0.60;;;23.30;15.40;;;;;;5101187;28;20055;-73
2023/10/08 11:17:16;;;;;;;1.00;0.60;;;23.60;14.60;;;;;;5099659;28;20044;-73
2023/10/08 11:19:45;;;;;;;1.17;0.68;;;23.90;13.90;;;;;;5102342;28;20052;-73
2023/10/08 11:22:16;;;;;;;0.90;0.70;;;24.20;14.30;;;;;;5078430;28;20036;-74
2023/10/08 11:24:53;;;;;;;0.50;0.40;;;24.40;12.90;;;;;;5085547;28;20055;-74
2023/10/08 11:27:33;;;;;;;1.00;0.70;;;24.60;11.20;;;;;;5088096;28;20062;-73
2023/10/08 11:30:00;;;;;;;1.33;0.60;;;24.90;10.40;;;;;;5084200;28;20051;-73
2023/10/08 11:32:27;;;;;;;1.00;0.80;;;24.90;6.70;;;;;;5102691;28;20054;-73
2023/10/08 11:35:00;;;;;;;0.68;0.60;;;24.90;5.50;;;;;;5098359;28;20334;-72
2023/10/08 11:37:35;;;;;;;1.30;0.90;;;25.00;4.50;;;;;;5087011;28;20108;-73
2023/10/08 11:40:17;;;;;;;1.77;0.75;;;25.10;3.80;;;;;;5080810;28;20134;-73
2023/10/08 11:42:44;;;;;;;;;;;25.30;3.70;;;;;;5101404;28;20047;-72
2023/10/08 11:45:26;;;;;;;1.42;1.00;;;25.50;1.00;;;;;;5092791;28;20273;-72
2023/10/08 11:47:57;;;;;;;0.98;0.75;;;25.60;1.00;;;;;;5103660;28;20050;-73
2023/10/08 11:50:30;;;;;;;1.45;1.02;;;25.80;1.00;;;;;;5101895;28;20054;-73
2023/10/08 11:53:02;;;;;;;1.90;1.00;;;25.90;1.00;;;;;;5103450;28;20345;-73
2023/10/08 11:55:34;;;;;;;;;;;25.90;1.00;;;;;;5098105;28;20040;-73
2023/10/08 11:58:09;;;;;;;1.40;1.00;;;26.10;1.00;;;;;;5102645;28;20341;-73
2023/10/08 12:00:46;;;;;;;1.08;0.90;;;26.10;1.00;;;;;;5103242;28;20047;-73
2023/10/08 12:03:18;;;;;;;1.38;0.90;;;26.30;1.00;;;;;;5097761;28;20532;-73
2023/10/08 12:05:48;;;;;;;1.30;0.98;;;26.30;1.00;;;;;;5096688;28;20047;-73
2023/10/08 12:08:17;;;;;;;1.98;1.08;;;26.50;1.00;;;;;;5086916;28;20044;-73
2023/10/08 12:10:48;;;;;;;1.52;1.00;;;26.50;1.00;;;;;;5100301;28;20079;-73
2023/10/08 12:13:16;;;;;;;1.75;1.00;;;26.50;1.00;;;;;;5090000;28;20047;-72
2023/10/08 12:15:47;;;;;;;1.05;0.85;;;26.60;1.00;;;;;;5105218;28;20056;-73
2023/10/08 12:18:26;;;;;;;1.00;0.70;;;26.60;1.00;;;;;;5105431;28;20055;-73
2023/10/08 12:20:56;;;;;;;1.90;0.85;;;26.80;1.00;;;;;;5107637;28;20112;-73
2023/10/08 12:23:25;;;;;;;1.55;0.95;;;27.00;1.00;;;;;;5107231;28;20036;-73
2023/10/08 12:25:55;;;;;;;1.85;1.40;;;27.10;1.00;;;;;;5106822;28;20047;-73
2023/10/08 12:28:27;;;;;;;1.45;1.20;;;26.90;1.00;;;;;;5089595;28;20042;-73
2023/10/08 12:30:55;;;;;;;0.95;0.82;;;27.00;1.00;;;;;;5090099;28;20075;-73
2023/10/08 12:33:25;;;;;;;1.35;0.77;;;27.20;1.00;;;;;;5107653;28;20131;-74
2023/10/08 12:35:55;;;;;;;1.10;0.77;;;27.40;1.00;;;;;;5089495;28;20053;-73
2023/10/08 12:38:23;;;;;;;0.77;0.70;;;27.60;1.00;;;;;;5105294;28;20040;-73
2023/10/08 12:40:52;;;;;;;0.85;0.70;;;27.80;1.00;;;;;;5072244;28;20047;-73
2023/10/08 12:43:26;;;;;;;1.35;0.75;;;27.90;1.00;;;;;;5087358;28;20082;-73
2023/10/08 12:45:56;;;;;;;1.30;0.80;;;28.00;1.00;;;;;;5084233;28;20420;-73
2023/10/08 12:48:26;;;;;;;1.10;0.82;;;27.90;1.00;;;;;;5090428;28;20062;-72
2023/10/08 12:50:58;;;;;;;1.15;0.80;;;27.90;1.00;;;;;;5106779;28;20054;-72
2023/10/08 12:53:33;;;;;;;0.85;0.70;;;28.00;1.00;;;;;;5106647;28;20385;-72
2023/10/08 12:56:05;;;;;;;1.20;0.80;;;28.10;1.00;;;;;;5105772;28;20058;-72
2023/10/08 12:58:38;;;;;;;;;;;28.10;1.00;;;;;;5107934;28;20083;-72
2023/10/08 13:01:06;;;;;;;1.38;0.95;;;28.20;1.00;;;;;;5090395;28;19923;-72
2023/10/08 13:03:40;;;;;;;0.60;0.60;;;28.30;1.00;;;;;;5101309;28;20040;-73
2023/10/08 13:06:14;;;;;;;0.77;0.70;;;28.60;1.00;;;;;;5102488;28;20050;-72
2023/10/08 13:08:41;;;;;;;0.80;0.55;;;28.80;1.00;;;;;;5098205;28;20048;-73
2023/10/08 13:11:08;;;;;;;1.00;0.70;;;28.80;1.00;;;;;;5100557;28;20158;-73
2023/10/08 13:13:36;;;;;;;1.48;0.80;;;28.80;1.00;;;;;;5101106;28;20040;-73
2023/10/08 13:16:07;;;;;;;0.50;0.50;;;28.80;1.00;;;;;;5098143;28;20044;-73
2023/10/08 13:18:37;;;;;;;0.60;0.50;;;28.90;1.00;;;;;;5100275;28;20195;-72
2023/10/08 13:21:05;;;;;;;1.67;0.90;;;29.20;1.00;;;;;;5101951;28;20491;-73
2023/10/08 13:23:35;;;;;;;0.80;0.80;;;29.50;1.00;;;;;;5100657;28;20040;-72
2023/10/08 13:26:06;;;;;;;0.73;0.57;;;29.60;1.00;;;;;;5100493;28;20500;-72
2023/10/08 13:28:34;;;;;;;0.40;0.40;;;29.70;1.00;;;;;;5100242;28;20048;-72
2023/10/08 13:31:09;;;;;;;0.95;0.70;;;29.90;1.00;;;;;;5100701;28;20043;-72
2023/10/08 13:33:42;;;;;;;0.85;0.70;;;30.10;1.00;;;;;;5101205;28;20175;-72
2023/10/08 13:36:10;;;;;;;0.68;0.50;;;30.50;1.00;;;;;;5101061;28;20516;-72
2023/10/08 13:38:46;;;;;;;0.90;0.70;;;30.70;1.00;;;;;;5096658;28;20079;-71
2023/10/08 13:41:14;;;;;;;0.65;0.60;;;31.00;1.00;;;;;;5100258;28;20050;-72
2023/10/08 13:43:45;;;;;;;0.77;0.60;;;31.30;1.00;;;;;;5100537;28;20156;-72
2023/10/08 13:46:20;;;;;;;0.88;0.80;;;31.60;1.00;;;;;;5082935;28;20270;-72
2023/10/08 13:48:50;;;;;;;1.23;0.85;;;31.60;1.00;;;;;;5099831;28;20062;-72
2023/10/08 13:51:25;;;;;;;1.10;0.88;;;31.60;1.00;;;;;;5099043;28;20083;-73
2023/10/08 13:54:06;;;;;;;1.70;1.17;;;31.40;1.00;;;;;;5100532;28;20608;-72
2023/10/08 13:56:33;;;;;;;1.85;1.30;;;31.60;1.00;;;;;;5100293;28;20147;-72
2023/10/08 13:59:12;;;;;;;1.45;1.00;;;31.70;1.00;;;;;;5082495;28;20388;-72
2023/10/08 14:01:45;;;;;;;1.73;1.20;;;31.90;1.00;;;;;;5100418;28;20060;-72
2023/10/08 14:04:17;;;;;;;1.27;1.00;;;31.80;1.00;;;;;;5080610;28;20044;-72
2023/10/08 14:06:51;;;;;;;1.92;1.10;;;32.00;1.00;;;;;;5082797;28;20151;-73
2023/10/08 14:09:31;;;;;;;1.60;0.90;;;32.10;1.00;;;;;;5098488;28;20039;-72
2023/10/08 14:12:00;;;;;;;1.73;0.80;;;32.30;1.00;;;;;;5084170;28;20431;-72
2023/10/08 14:14:29;;;;;;;1.63;0.90;;;32.60;1.00;;;;;;5098799;28;20122;-72
2023/10/08 14:17:03;;;;;;;1.40;1.00;;;32.90;1.00;;;;;;5096569;28;20132;-73
2023/10/08 14:19:39;;;;;;;1.48;0.73;;;33.10;1.00;;;;;;5097340;28;20670;-73
2023/10/08 14:22:08;;;;;;;1.48;0.93;;;33.50;1.00;;;;;;5083642;28;20048;-72